createdAt,value
2022-11-05T00:00:36.027Z,96872.22
2022-11-05T00:03:21.569Z,96866.84
2022-11-05T00:06:10.211Z,96818.53
2022-11-05T00:08:56.909Z,96867.28
2022-11-05T00:11:45.492Z,96863.84
2022-11-05T00:14:33.104Z,96849.56
2022-11-05T00:17:01.402Z,96822.78
2022-11-05T00:19:29.733Z,96861.00
2022-11-05T00:22:15.255Z,96866.44
2022-11-05T00:25:00.806Z,96846.56
2022-11-05T00:27:29.045Z,96863.84
2022-11-05T00:29:58.723Z,96878.88
2022-11-05T00:32:26.936Z,96794.53
2022-11-05T00:34:55.183Z,96892.88
2022-11-05T00:37:23.464Z,96890.41
2022-11-05T00:39:51.698Z,96905.22
2022-11-05T00:42:37.455Z,96914.91
2022-11-05T00:45:08.525Z,96899.97
2022-11-05T00:47:54.245Z,96930.91
2022-11-05T00:50:23.856Z,96927.19
2022-11-05T00:52:59.810Z,96919.69
2022-11-05T00:55:34.824Z,96913.53
2022-11-05T00:58:05.093Z,96907.53
2022-11-05T01:00:37.000Z,96883.13
2022-11-05T01:03:07.361Z,96928.88
2022-11-05T01:05:39.786Z,96931.22
2022-11-05T01:08:09.120Z,96939.34
2022-11-05T01:10:41.740Z,96942.84
2022-11-05T01:13:13.224Z,96943.44
2022-11-05T01:15:43.523Z,96906.91
2022-11-05T01:18:12.165Z,96947.91
2022-11-05T01:20:40.450Z,96754.00
2022-11-05T01:23:13.234Z,96947.16
2022-11-05T01:25:42.118Z,96939.22
2022-11-05T01:28:11.034Z,96947.13
2022-11-05T01:30:39.431Z,96953.19
2022-11-05T01:33:09.769Z,96939.22
2022-11-05T01:35:38.258Z,96922.28
2022-11-05T01:38:06.605Z,96911.91
2022-11-05T01:40:34.936Z,96930.78
2022-11-05T01:43:03.202Z,96920.53
2022-11-05T01:45:31.551Z,96931.97
2022-11-05T01:48:04.469Z,96933.38
2022-11-05T01:50:38.823Z,96941.50
2022-11-05T01:53:13.678Z,96850.22
2022-11-05T01:55:45.706Z,96935.41
2022-11-05T01:58:19.018Z,96906.41
2022-11-05T02:00:47.464Z,96815.25
2022-11-05T02:03:17.921Z,96941.88
2022-11-05T02:05:49.756Z,96924.09
2022-11-05T02:08:27.077Z,96909.88
2022-11-05T02:10:55.859Z,96943.84
2022-11-05T02:13:24.102Z,96944.78
2022-11-05T02:16:04.327Z,96923.47
2022-11-05T02:18:44.441Z,96948.84
2022-11-05T02:21:47.431Z,96956.75
2022-11-05T02:24:45.509Z,96957.19
2022-11-05T02:27:22.247Z,96944.19
2022-11-05T02:30:13.736Z,96935.34
2022-11-05T02:33:18.461Z,96951.28
2022-11-05T02:36:07.453Z,96950.81
2022-11-05T02:38:42.366Z,96934.31
2022-11-05T02:41:19.926Z,96945.47
2022-11-05T02:44:00.635Z,96912.25
2022-11-05T02:46:37.479Z,96938.97
2022-11-05T02:49:19.211Z,96946.69
2022-11-05T02:51:53.002Z,96939.00
2022-11-05T02:54:27.095Z,96936.31
2022-11-05T02:56:59.351Z,96941.03
2022-11-05T02:59:27.656Z,96941.47
2022-11-05T03:01:57.052Z,96925.28
2022-11-05T03:04:28.155Z,96911.53
2022-11-05T03:07:15.680Z,96923.63
2022-11-05T03:10:11.035Z,96935.50
2022-11-05T03:12:47.904Z,96942.38
2022-11-05T03:15:28.170Z,96940.72
2022-11-05T03:18:04.604Z,96928.91
2022-11-05T03:20:39.121Z,96937.41
2022-11-05T03:23:13.751Z,96938.34
2022-11-05T03:25:47.425Z,96935.13
2022-11-05T03:28:17.107Z,96909.16
2022-11-05T03:30:46.761Z,96932.22
2022-11-05T03:33:19.816Z,96937.09
2022-11-05T03:35:53.675Z,96923.38
2022-11-05T03:38:27.505Z,96859.81
2022-11-05T03:40:58.460Z,96928.06
2022-11-05T03:43:31.550Z,96928.91
2022-11-05T03:46:04.377Z,96929.81
2022-11-05T03:48:34.582Z,96937.84
2022-11-05T03:51:12.674Z,96953.38
2022-11-05T03:53:48.017Z,96910.97
2022-11-05T03:56:22.282Z,96962.97
2022-11-05T03:58:56.048Z,96965.53
2022-11-05T04:01:27.372Z,96956.91
2022-11-05T04:03:55.783Z,96956.06
2022-11-05T04:06:42.769Z,96959.50
2022-11-05T04:09:28.858Z,96967.25
2022-11-05T04:12:14.307Z,96972.25
2022-11-05T04:14:42.565Z,96968.91
2022-11-05T04:17:10.014Z,96987.16
2022-11-05T04:19:57.287Z,96986.56
2022-11-05T04:22:46.394Z,96961.72
2022-11-05T04:25:15.774Z,96965.84
2022-11-05T04:27:44.183Z,96989.22
2022-11-05T04:30:22.944Z,96996.59
2022-11-05T04:33:02.045Z,97010.75
2022-11-05T04:35:31.807Z,96988.28
2022-11-05T04:38:01.725Z,97010.59
2022-11-05T04:40:30.426Z,97017.59
2022-11-05T04:42:59.224Z,97023.06
2022-11-05T04:45:29.754Z,96995.72
2022-11-05T04:47:58.035Z,97002.69
2022-11-05T04:50:26.288Z,96987.50
2022-11-05T04:52:54.615Z,97021.53
2022-11-05T04:55:24.775Z,96956.47
2022-11-05T04:57:54.788Z,97040.94
2022-11-05T05:00:24.993Z,97024.03
2022-11-05T05:02:53.400Z,97046.22
2022-11-05T05:05:23.226Z,97047.84
2022-11-05T05:07:51.529Z,97032.16
2022-11-05T05:10:19.922Z,97055.31
2022-11-05T05:12:49.602Z,97046.56
2022-11-05T05:15:17.955Z,97041.28
2022-11-05T05:17:46.248Z,97064.50
2022-11-05T05:20:31.976Z,97059.06
2022-11-05T05:23:00.320Z,97058.81
2022-11-05T05:25:28.565Z,97051.28
2022-11-05T05:27:59.615Z,97068.13
2022-11-05T05:30:27.855Z,97080.41
2022-11-05T05:32:56.068Z,97077.78
2022-11-05T05:35:24.336Z,97092.47
2022-11-05T05:37:56.826Z,97095.34
2022-11-05T05:40:25.855Z,97083.13
2022-11-05T05:42:55.584Z,97098.69
2022-11-05T05:45:25.350Z,97068.97
2022-11-05T05:47:55.940Z,97101.44
2022-11-05T05:50:24.231Z,97115.44
2022-11-05T05:52:52.502Z,97097.16
2022-11-05T05:55:20.775Z,97103.44
2022-11-05T05:57:49.005Z,97100.19
2022-11-05T06:00:17.603Z,97093.28
2022-11-05T06:02:47.449Z,97095.94
2022-11-05T06:05:15.970Z,97082.94
2022-11-05T06:07:44.216Z,97087.88
2022-11-05T06:10:12.556Z,97093.94
2022-11-05T06:12:40.808Z,97095.59
2022-11-05T06:15:09.660Z,97106.03
2022-11-05T06:17:37.936Z,97091.78
2022-11-05T06:20:09.758Z,97100.13
2022-11-05T06:22:38.130Z,97105.13
2022-11-05T06:25:07.574Z,97113.63
2022-11-05T06:27:36.958Z,97114.63
2022-11-05T06:30:06.136Z,97116.38
2022-11-05T06:32:34.415Z,97121.59
2022-11-05T06:35:02.644Z,97123.97
2022-11-05T06:37:34.754Z,97129.19
2022-11-05T06:40:03.271Z,97138.50
2022-11-05T06:42:31.518Z,97146.78
2022-11-05T06:44:59.883Z,97141.41
2022-11-05T06:47:28.444Z,97142.88
2022-11-05T06:49:57.616Z,97140.19
2022-11-05T06:52:27.529Z,97155.41
2022-11-05T06:54:57.247Z,97158.50
2022-11-05T06:57:25.497Z,97168.75
2022-11-05T06:59:59.990Z,97163.59
2022-11-05T07:02:29.662Z,97168.50
2022-11-05T07:04:57.964Z,97144.56
2022-11-05T07:07:26.266Z,97178.03
2022-11-05T07:09:54.548Z,97156.41
2022-11-05T07:12:24.214Z,97169.66
2022-11-05T07:14:52.465Z,97166.59
2022-11-05T07:17:20.706Z,97170.91
2022-11-05T07:19:48.969Z,97174.25
2022-11-05T07:22:17.437Z,97153.03
2022-11-05T07:24:47.401Z,97173.41
2022-11-05T07:27:15.916Z,97094.31
2022-11-05T07:29:45.578Z,97172.81
2022-11-05T07:32:13.816Z,97164.69
2022-11-05T07:34:42.104Z,97172.34
2022-11-05T07:37:10.638Z,97172.13
2022-11-05T07:39:38.944Z,97179.25
2022-11-05T07:42:07.272Z,97182.34
2022-11-05T07:44:35.590Z,97178.69
2022-11-05T07:47:05.359Z,97181.28
2022-11-05T07:49:33.602Z,97183.28
2022-11-05T07:52:01.908Z,97186.03
2022-11-05T07:54:30.279Z,97182.00
2022-11-05T07:56:58.509Z,97192.63
2022-11-05T07:59:26.971Z,97196.13
2022-11-05T08:01:55.368Z,97194.72
2022-11-05T08:04:25.244Z,97181.59
2022-11-05T08:06:53.566Z,97198.13
2022-11-05T08:09:21.795Z,97197.50
2022-11-05T08:11:52.956Z,97195.56
2022-11-05T08:14:21.416Z,97145.81
2022-11-05T08:16:49.674Z,97178.59
2022-11-05T08:19:17.928Z,97182.91
2022-11-05T08:21:47.687Z,97187.69
2022-11-05T08:24:15.927Z,97189.50
2022-11-05T08:26:44.204Z,97187.31
2022-11-05T08:29:12.473Z,97183.16
2022-11-05T08:31:40.746Z,97169.56
2022-11-05T08:34:09.027Z,97186.69
2022-11-05T08:36:37.499Z,97173.53
2022-11-05T08:39:07.235Z,97172.81
2022-11-05T08:41:35.518Z,97187.09
2022-11-05T08:44:03.826Z,97188.38
2022-11-05T08:46:32.057Z,97186.75
2022-11-05T08:49:00.275Z,97183.97
2022-11-05T08:51:28.491Z,97183.84
2022-11-05T08:53:56.718Z,97182.78
2022-11-05T08:56:26.475Z,97173.38
2022-11-05T08:58:54.687Z,97129.00
2022-11-05T09:01:23.028Z,97171.59
2022-11-05T09:03:52.610Z,97161.03
2022-11-05T09:06:21.332Z,97180.59
2022-11-05T09:08:49.570Z,97184.06
2022-11-05T09:11:18.401Z,97186.22
2022-11-05T09:13:48.078Z,97191.22
2022-11-05T09:16:20.588Z,97173.63
2022-11-05T09:18:49.497Z,97188.28
2022-11-05T09:21:18.474Z,97195.19
2022-11-05T09:23:47.498Z,97198.41
2022-11-05T09:26:15.849Z,97125.78
2022-11-05T09:28:44.778Z,97208.06
2022-11-05T09:31:15.333Z,97210.44
2022-11-05T09:33:43.662Z,97199.13
2022-11-05T09:36:11.932Z,97216.09
2022-11-05T09:38:40.148Z,97216.94
2022-11-05T09:41:14.173Z,97217.78
2022-11-05T09:43:45.752Z,97215.81
2022-11-05T09:46:21.482Z,97218.97
2022-11-05T09:48:54.196Z,97219.81
2022-11-05T09:51:24.348Z,97201.94
2022-11-05T09:53:53.792Z,97202.75
2022-11-05T09:56:25.319Z,97205.03
2022-11-05T09:58:58.640Z,97206.72
2022-11-05T10:01:32.523Z,97212.75
2022-11-05T10:04:04.051Z,97212.75
2022-11-05T10:06:32.425Z,97211.88
2022-11-05T10:09:07.045Z,97199.97
2022-11-05T10:11:40.136Z,97204.09
2022-11-05T10:14:14.853Z,97210.09
2022-11-05T10:16:50.150Z,97212.66
2022-11-05T10:19:24.691Z,97227.56
2022-11-05T10:22:11.719Z,97212.84
2022-11-05T10:24:43.964Z,97221.03
2022-11-05T10:27:18.057Z,97209.09
2022-11-05T10:29:46.874Z,97194.56
2022-11-05T10:32:23.009Z,97206.81
2022-11-05T10:34:51.992Z,97223.00
2022-11-05T10:37:21.864Z,97214.00
2022-11-05T10:39:50.634Z,97219.22
2022-11-05T10:42:55.885Z,97217.47
2022-11-05T10:45:35.049Z,97217.22
2022-11-05T10:48:32.255Z,97230.06
2022-11-05T10:51:00.934Z,97233.31
2022-11-05T10:53:32.414Z,97226.28
2022-11-05T10:56:00.869Z,97221.75
2022-11-05T10:58:31.766Z,97226.81
2022-11-05T11:01:07.788Z,97226.59
2022-11-05T11:03:42.543Z,97227.97
2022-11-05T11:06:25.231Z,97234.81
2022-11-05T11:08:55.114Z,97229.94
2022-11-05T11:11:30.107Z,97243.47
2022-11-05T11:14:04.580Z,97239.75
2022-11-05T11:16:38.167Z,97229.53
2022-11-05T11:19:25.555Z,97221.97
2022-11-05T11:22:22.494Z,97238.50
2022-11-05T11:24:54.119Z,97243.59
2022-11-05T11:27:28.439Z,97205.19
2022-11-05T11:29:59.568Z,97248.88
2022-11-05T11:32:34.536Z,97244.69
2022-11-05T11:35:05.289Z,97248.16
2022-11-05T11:37:37.480Z,97233.63
2022-11-05T11:40:14.245Z,97251.66
2022-11-05T11:42:46.706Z,97172.31
2022-11-05T11:45:22.263Z,97249.72
2022-11-05T11:47:51.587Z,97259.34
2022-11-05T11:50:40.619Z,97256.63
2022-11-05T11:53:35.887Z,97243.84
2022-11-05T11:56:15.705Z,97229.75
2022-11-05T11:58:47.427Z,97227.97
2022-11-05T12:01:46.235Z,97253.13
2022-11-05T12:04:27.924Z,97251.84
2022-11-05T12:07:10.600Z,97238.44
2022-11-05T12:09:54.680Z,97218.34
2022-11-05T12:12:30.143Z,97247.94
2022-11-05T12:15:04.132Z,97239.34
2022-11-05T12:17:48.840Z,97242.75
2022-11-05T12:20:31.539Z,97245.31
2022-11-05T12:23:15.056Z,97243.81
2022-11-05T12:25:51.946Z,97235.66
2022-11-05T12:28:57.893Z,97172.59
2022-11-05T12:31:36.259Z,97237.53
2022-11-05T12:34:20.204Z,97190.25
2022-11-05T12:37:16.980Z,97214.31
2022-11-05T12:40:01.086Z,97234.84
2022-11-05T12:42:44.235Z,97244.72
2022-11-05T12:45:30.970Z,97247.44
2022-11-05T12:48:11.657Z,97235.78
2022-11-05T12:50:46.311Z,97270.66
2022-11-05T12:53:53.950Z,97273.47
2022-11-05T12:56:33.920Z,97264.66
2022-11-05T12:59:06.065Z,97283.25
2022-11-05T13:01:38.250Z,97267.72
2022-11-05T13:04:15.192Z,97294.81
2022-11-05T13:06:48.397Z,97251.81
2022-11-05T13:09:20.714Z,97285.88
2022-11-05T13:11:54.894Z,97291.41
2022-11-05T13:14:27.044Z,97295.38
2022-11-05T13:16:58.705Z,97290.09
2022-11-05T13:19:31.008Z,97209.19
2022-11-05T13:22:08.107Z,97301.91
2022-11-05T13:24:41.564Z,97314.97
2022-11-05T13:27:29.725Z,97286.53
2022-11-05T13:30:05.037Z,97280.03
2022-11-05T13:32:37.563Z,97318.47
2022-11-05T13:35:09.054Z,97294.59
2022-11-05T13:37:59.210Z,97314.88
2022-11-05T13:40:39.459Z,97320.91
2022-11-05T13:43:21.499Z,97322.25
2022-11-05T13:46:06.211Z,97302.59
2022-11-05T13:49:08.260Z,97308.63
2022-11-05T13:51:55.454Z,97317.28
2022-11-05T13:55:19.618Z,97323.13
2022-11-05T13:58:06.794Z,97324.03
2022-11-05T14:00:43.469Z,97323.91
2022-11-05T14:03:19.867Z,97315.34
2022-11-05T14:05:55.808Z,97326.38
2022-11-05T14:08:29.188Z,97330.22
2022-11-05T14:11:03.916Z,97330.03
2022-11-05T14:13:37.857Z,97318.25
2022-11-05T14:16:10.650Z,97333.00
2022-11-05T14:18:44.833Z,97331.78
2022-11-05T14:21:33.856Z,97338.09
2022-11-05T14:24:42.717Z,97328.91
2022-11-05T14:27:46.119Z,97348.47
2022-11-05T14:30:44.485Z,97341.53
2022-11-05T14:33:33.441Z,97323.66
2022-11-05T14:36:38.376Z,97356.03
2022-11-05T14:39:25.296Z,97362.28
2022-11-05T14:42:00.165Z,97343.63
2022-11-05T14:44:29.875Z,97354.94
2022-11-05T14:47:02.297Z,97362.97
2022-11-05T14:49:34.727Z,97370.22
2022-11-05T14:52:09.388Z,97379.13
2022-11-05T14:54:44.325Z,97379.38
2022-11-05T14:57:15.794Z,97374.13
2022-11-05T15:00:02.955Z,97313.44
2022-11-05T15:02:38.281Z,97371.13
2022-11-05T15:05:40.198Z,97385.19
2022-11-05T15:08:33.722Z,97388.66
2022-11-05T15:11:13.127Z,97388.28
2022-11-05T15:13:51.064Z,97398.88
2022-11-05T15:16:25.223Z,97399.03
2022-11-05T15:18:58.009Z,97401.16
2022-11-05T15:21:39.068Z,97395.53
2022-11-05T15:24:08.875Z,97399.47
2022-11-05T15:26:47.115Z,97408.78
2022-11-05T15:29:22.665Z,97370.53
2022-11-05T15:31:52.814Z,97411.88
2022-11-05T15:34:25.714Z,97377.97
2022-11-05T15:36:58.179Z,97410.50
2022-11-05T15:39:40.764Z,97366.75
2022-11-05T15:42:15.079Z,97390.91
2022-11-05T15:44:45.888Z,97313.16
2022-11-05T15:47:19.551Z,97398.16
2022-11-05T15:49:50.905Z,97402.53
2022-11-05T15:52:22.337Z,97396.53
2022-11-05T15:55:09.569Z,97355.53
2022-11-05T15:57:40.522Z,97410.19
2022-11-05T16:00:18.527Z,97408.91
2022-11-05T16:02:54.858Z,97402.44
2022-11-05T16:05:26.074Z,97400.09
2022-11-05T16:08:00.107Z,97391.84
2022-11-05T16:10:32.851Z,97401.00
2022-11-05T16:13:32.036Z,97423.16
2022-11-05T16:16:02.794Z,97316.81
2022-11-05T16:18:36.114Z,97422.50
2022-11-05T16:21:08.632Z,97440.78
2022-11-05T16:23:54.000Z,97430.81
2022-11-05T16:27:00.715Z,97451.84
2022-11-05T16:29:24.847Z,97452.16
2022-11-05T16:31:55.550Z,97449.94
2022-11-05T16:34:29.814Z,97369.53
2022-11-05T16:37:01.009Z,97473.03
2022-11-05T16:39:32.901Z,97480.41
2022-11-05T16:42:02.137Z,97473.91
2022-11-05T16:44:31.647Z,97491.44
2022-11-05T16:47:00.706Z,97487.25
2022-11-05T16:49:29.582Z,97495.59
2022-11-05T16:52:01.225Z,97504.41
2022-11-05T16:54:31.296Z,97441.31
2022-11-05T16:57:05.279Z,97510.75
2022-11-05T16:59:36.027Z,97514.28
2022-11-05T17:02:05.661Z,97415.13
2022-11-05T17:04:34.374Z,97526.47
2022-11-05T17:07:03.785Z,97525.38
2022-11-05T17:09:34.874Z,97526.34
2022-11-05T17:12:03.876Z,97527.34
2022-11-05T17:14:33.553Z,97488.78
2022-11-05T17:17:04.136Z,97534.94
2022-11-05T17:19:33.856Z,97536.94
2022-11-05T17:22:03.335Z,97514.22
2022-11-05T17:24:36.161Z,97527.13
2022-11-05T17:27:05.634Z,97518.00
2022-11-05T17:29:35.076Z,97531.69
2022-11-05T17:32:04.028Z,97531.53
2022-11-05T17:34:33.631Z,97537.63
2022-11-05T17:37:02.689Z,97546.53
2022-11-05T17:39:32.483Z,97529.97
2022-11-05T17:42:03.764Z,97490.31
2022-11-05T17:44:33.227Z,97533.66
2022-11-05T17:47:02.933Z,97540.63
2022-11-05T17:49:32.779Z,97539.00
2022-11-05T17:52:02.037Z,97558.25
2022-11-05T17:54:33.216Z,97541.88
2022-11-05T17:57:05.072Z,97542.09
2022-11-05T17:59:35.334Z,97557.81
2022-11-05T18:02:04.647Z,97524.50
2022-11-05T18:04:34.599Z,97570.38
2022-11-05T18:07:04.255Z,97532.41
2022-11-05T18:09:34.334Z,97551.53
2022-11-05T18:12:05.814Z,97566.91
2022-11-05T18:14:35.675Z,97555.22
2022-11-05T18:17:05.294Z,97553.66
2022-11-05T18:19:39.085Z,97567.69
2022-11-05T18:22:08.818Z,97575.78
2022-11-05T18:24:39.509Z,97576.63
2022-11-05T18:27:12.328Z,97471.25
2022-11-05T18:29:41.444Z,97581.19
2022-11-05T18:32:10.504Z,97572.88
2022-11-05T18:34:43.004Z,97588.69
2022-11-05T18:37:14.506Z,97593.72
2022-11-05T18:39:48.245Z,97590.28
2022-11-05T18:42:20.488Z,97478.75
2022-11-05T18:44:51.009Z,97599.22
2022-11-05T18:47:21.934Z,97596.78
2022-11-05T18:49:51.871Z,97557.28
2022-11-05T18:52:22.884Z,97584.31
2022-11-05T18:54:52.967Z,97601.63
2022-11-05T18:57:23.969Z,97599.84
2022-11-05T18:59:56.288Z,97607.81
2022-11-05T19:02:28.411Z,97602.63
2022-11-05T19:07:47.139Z,97611.44
2022-11-05T19:10:17.284Z,97613.09
2022-11-05T19:12:50.848Z,97617.66
2022-11-05T19:15:21.985Z,97613.28
2022-11-05T19:17:52.246Z,97622.88
2022-11-05T19:20:23.476Z,97631.75
2022-11-05T19:22:52.675Z,97644.16
2022-11-05T19:25:21.952Z,97650.41
2022-11-05T19:27:53.478Z,97615.72
2022-11-05T19:30:23.717Z,97646.88
2022-11-05T19:32:54.180Z,97631.50
2022-11-05T19:35:25.099Z,97563.59
2022-11-05T19:37:55.666Z,97653.81
2022-11-05T19:40:25.815Z,97658.19
2022-11-05T19:42:57.376Z,97660.09
2022-11-05T19:48:19.728Z,97670.31
2022-11-05T19:50:50.169Z,97649.50
2022-11-05T19:53:19.966Z,97583.34
2022-11-05T19:55:49.836Z,97656.38
2022-11-05T19:58:22.584Z,97653.47
2022-11-05T20:00:52.977Z,97674.22
2022-11-05T20:03:23.423Z,97673.13
2022-11-05T20:05:53.322Z,97677.56
2022-11-05T20:08:24.424Z,97674.19
2022-11-05T20:10:56.816Z,97647.81
2022-11-05T20:13:29.813Z,97673.47
2022-11-05T20:16:00.044Z,97628.00
2022-11-05T20:18:29.975Z,97680.25
2022-11-05T20:21:09.270Z,97671.41
2022-11-05T20:23:41.610Z,97666.94
2022-11-05T20:26:11.459Z,97644.81
2022-11-05T20:28:45.155Z,97680.97
2022-11-05T20:31:16.385Z,97676.66
2022-11-05T20:33:46.836Z,97664.56
2022-11-05T20:36:18.219Z,97689.63
2022-11-05T20:38:50.881Z,97690.66
2022-11-05T20:41:20.738Z,97625.59
2022-11-05T20:43:52.520Z,97674.66
2022-11-05T20:46:23.945Z,97670.56
2022-11-05T20:48:54.137Z,97669.84
2022-11-05T20:51:26.232Z,97578.75
2022-11-05T20:53:57.579Z,97693.44
2022-11-05T20:56:28.778Z,97671.69
2022-11-05T20:59:00.945Z,97695.13
2022-11-05T21:01:34.387Z,97688.19
2022-11-05T21:04:05.154Z,97675.31
2022-11-05T21:06:35.142Z,97654.72
2022-11-05T21:09:06.260Z,97588.81
2022-11-05T21:11:56.414Z,97688.63
2022-11-05T21:14:27.939Z,97674.88
2022-11-05T21:16:56.954Z,97699.06
2022-11-05T21:19:26.588Z,97649.97
2022-11-05T21:21:55.984Z,97698.94
2022-11-05T21:24:25.359Z,97678.59
2022-11-05T21:26:54.568Z,97699.06
2022-11-05T21:29:24.957Z,97707.97
2022-11-05T21:31:57.599Z,97709.75
2022-11-05T21:34:29.405Z,97700.38
2022-11-05T21:36:58.842Z,97690.22
2022-11-05T21:39:27.963Z,97675.59
2022-11-05T21:41:58.464Z,97698.78
2022-11-05T21:44:26.848Z,97703.06
2022-11-05T21:47:00.823Z,97678.97
2022-11-05T21:49:30.039Z,97701.47
2022-11-05T21:52:16.339Z,97703.31
2022-11-05T21:55:02.259Z,97701.72
2022-11-05T21:57:47.803Z,97693.75
2022-11-05T22:00:16.092Z,97699.81
2022-11-05T22:02:46.293Z,97697.28
2022-11-05T22:05:16.069Z,97682.63
2022-11-05T22:07:44.592Z,97696.13
2022-11-05T22:10:16.468Z,97685.00
2022-11-05T22:12:45.720Z,97696.75
2022-11-05T22:15:14.510Z,97696.84
2022-11-05T22:17:46.856Z,97679.59
2022-11-05T22:20:17.983Z,97677.09
2022-11-05T22:22:46.472Z,97689.25
2022-11-05T22:25:15.683Z,97603.31
2022-11-05T22:27:44.502Z,97690.41
2022-11-05T22:30:14.899Z,97682.81
2022-11-05T22:32:43.119Z,97705.22
2022-11-05T22:35:11.574Z,97696.66
2022-11-05T22:37:41.247Z,97681.28
2022-11-05T22:40:10.327Z,97624.31
2022-11-05T22:42:38.809Z,97702.00
2022-11-05T22:45:08.230Z,97664.00
2022-11-05T22:47:36.741Z,97694.13
2022-11-05T22:50:06.569Z,97683.16
2022-11-05T22:52:34.882Z,97694.25
2022-11-05T22:55:06.391Z,97630.63
2022-11-05T22:57:34.647Z,97699.66
2022-11-05T23:00:02.859Z,97692.03
2022-11-05T23:02:31.411Z,97699.03
2022-11-05T23:04:59.694Z,97689.34
2022-11-05T23:07:45.502Z,97686.91
2022-11-05T23:10:32.674Z,97673.22
2022-11-05T23:13:00.927Z,97684.44
2022-11-05T23:15:46.674Z,97589.66
2022-11-05T23:18:32.024Z,97676.69
2022-11-05T23:21:22.704Z,97689.34
2022-11-05T23:24:06.409Z,97696.22
2022-11-05T23:26:54.116Z,97515.72
2022-11-05T23:29:24.548Z,97633.50
2022-11-05T23:32:10.853Z,97693.63
2022-11-05T23:34:39.542Z,97614.34
2022-11-05T23:37:25.058Z,97695.34
2022-11-05T23:39:53.321Z,97672.13
2022-11-05T23:42:40.068Z,97697.09
2022-11-05T23:45:26.509Z,97694.22
2022-11-05T23:48:12.300Z,97702.16
2022-11-05T23:50:41.128Z,97699.72
2022-11-05T23:53:09.999Z,97697.16
2022-11-05T23:55:38.476Z,97700.63
2022-11-05T23:58:08.403Z,97702.16
